Airfield :
LOGIN :

Register | Disclaimer

   EN    FR    IT 

 










Legend :    VFR   Marginal VFR   IFR   Intensive IFR   Very Intensive IFR
Visi :
Ceiling :
>= 8 km
>= 3000ft
5 to 8 km
1000 to 3000 ft
1500m to 5 km
500 to 1000 ft
800 to 1500m
200 to 500 ft
< 800m
< 200 ft
Symbols :   Thunderstorms  Fog  Heavy snow  Heavy precipitations  Wind > 20 kt
SIGMETs :     Misc.  Thunderstorms  Icing  Turbulence  Mountain Waves  Volcanic Ashes







- Airport Elevation : 348 ft
- IATA code : STN
- Download approach charts


EGSS - London Stansted

CURRENT METAR :
  • 220020Z AUTO 25013KT 9999 SCT022 BKN026 BKN031 12/08 Q1004

EXPIRED METARs :
  • 212350Z AUTO 24015G26KT 9999 BKN023 12/08 Q1003
  • 212320Z AUTO 25013KT 9999 SCT024 12/08 Q1003
  • 212250Z AUTO 24013KT 9999 BKN024 BKN028 OVC033 12/09 Q1003
  • 212220Z AUTO 24013KT 9999 FEW017 BKN031 12/09 Q1002
  • 212150Z AUTO 24013KT 9999 BKN016 BKN022 OVC030 12/09 Q1002

TAF TAF EGSS
Valid from the 22 at 00:00 until the 23 at 06:00 UTC


212259Z 2200/2306 25013KT 9999 SCT025
PROB30
TEMPO 2200/2209 26016G26KT 7000 SHRA BKN014
TEMPO 2209/2217 27018G28KT
PROB30
TEMPO 2209/2218 7000 SHRA
PROB30
TEMPO 2303/2306 4000 -RADZ BKN006
ATIS : +44 1279 669 325
No reported NOTAMs for that airfield.
1 SIGMET reported for the London FIR (EGTT) :
 
Severe turbulence
EGTT SIGMET 06 VALID 212200/220200 EGRR
EGTT LONDON FIR SEV TURB FCST WI N5040 E00128 - N5000 W00015 - N5000 W00200 - N4926 W00458 - N5125 W00714 - N5220 W00530 - N5500 W00530 - N5058 E00128 - N5040 E00128 SFC/FL060 MOV NE 05KT WKN=



MET'MAP, your aeronautical weather chart ! - Copyright ORBIFLY December 2007 - Disclaimer

ORBIFLY MET'MAP TEAM :

Programming & Development : Alexandra Zaïnal
Concept & Development : Baudouin d'Aumeries
Co-Development & Prog : Marc-Olivier Méhu
Technical & hardware support : Manuel Goepfert

Contact : metmap@orbifly.com




SOURCES & CREDITS :

   NOAA